createdAt,value
2022-10-22T00:01:35.634Z,13.3
2022-10-22T00:06:35.618Z,13.3
2022-10-22T00:11:35.616Z,13.25
2022-10-22T00:21:35.619Z,13.18
2022-10-22T00:31:35.619Z,13.17
2022-10-22T00:36:35.580Z,13.18
2022-10-22T00:41:35.593Z,13.22
2022-10-22T00:56:35.576Z,13.21
2022-10-22T01:01:35.580Z,13.19
2022-10-22T01:16:35.553Z,13.15
2022-10-22T01:36:35.529Z,13.15
2022-10-22T01:41:35.519Z,13.15
2022-10-22T01:46:35.526Z,13.19
2022-10-22T01:51:35.531Z,13.26
2022-10-22T01:56:35.507Z,13.31
2022-10-22T02:01:35.505Z,13.37
2022-10-22T02:06:35.502Z,13.43
2022-10-22T02:11:35.495Z,13.45
2022-10-22T02:16:35.487Z,13.47
2022-10-22T02:21:35.487Z,13.46
2022-10-22T02:26:35.470Z,13.45
2022-10-22T02:31:35.505Z,13.45
2022-10-22T02:36:35.467Z,13.43
2022-10-22T02:41:35.457Z,13.41
2022-10-22T02:46:35.458Z,13.39
2022-10-22T02:51:35.447Z,13.39
2022-10-22T02:56:35.449Z,13.37
2022-10-22T03:01:35.419Z,13.38
2022-10-22T03:06:35.428Z,13.38
2022-10-22T03:11:35.418Z,13.38
2022-10-22T03:16:35.422Z,13.37
2022-10-22T03:21:35.416Z,13.36
2022-10-22T03:26:35.419Z,13.32
2022-10-22T03:31:35.417Z,13.3
2022-10-22T03:36:35.391Z,13.25
2022-10-22T03:41:35.387Z,13.22
2022-10-22T03:46:35.371Z,13.18
2022-10-22T03:51:35.388Z,13.15
2022-10-22T03:56:35.372Z,13.15
2022-10-22T04:01:35.438Z,13.13
2022-10-22T04:06:35.344Z,13.1
2022-10-22T04:11:35.361Z,13.06
2022-10-22T04:16:35.330Z,13.03
2022-10-22T04:21:35.336Z,13
2022-10-22T04:26:35.342Z,13
2022-10-22T04:31:35.342Z,13.08
2022-10-22T04:36:35.318Z,13.1
2022-10-22T04:41:35.325Z,13.1
2022-10-22T04:46:35.311Z,13.06
2022-10-22T04:51:35.310Z,13.04
2022-10-22T04:56:35.319Z,13.06
2022-10-22T05:01:36.908Z,13.09
2022-10-22T05:06:35.293Z,13.06
2022-10-22T05:11:35.283Z,13.04
2022-10-22T05:16:35.387Z,13.01
2022-10-22T05:21:35.343Z,13
2022-10-22T05:26:35.263Z,13
2022-10-22T05:31:35.260Z,12.98
2022-10-22T05:36:35.266Z,12.88
2022-10-22T05:41:35.241Z,12.8
2022-10-22T05:46:35.271Z,12.69
2022-10-22T05:56:35.233Z,12.58
2022-10-22T06:01:35.278Z,12.58
2022-10-22T06:06:35.239Z,12.59
2022-10-22T06:11:35.386Z,12.59
2022-10-22T06:16:35.208Z,12.59
2022-10-22T06:21:35.216Z,12.59
2022-10-22T06:36:35.294Z,12.64
2022-10-22T06:41:35.190Z,12.66
2022-10-22T07:16:35.153Z,12.7
2022-10-22T07:21:35.157Z,12.73
2022-10-22T07:26:35.147Z,12.74
2022-10-22T07:31:35.138Z,12.73
2022-10-22T07:36:35.140Z,12.77
2022-10-22T07:41:35.127Z,12.8
2022-10-22T07:46:35.123Z,12.88
2022-10-22T07:51:35.153Z,12.89
2022-10-22T07:56:35.104Z,12.89
2022-10-22T08:01:35.210Z,12.98
2022-10-22T08:06:35.098Z,13.15
2022-10-22T08:11:35.095Z,13.25
2022-10-22T08:16:35.070Z,13.33
2022-10-22T08:21:35.080Z,13.4
2022-10-22T08:26:35.065Z,13.44
2022-10-22T08:31:35.074Z,13.53
2022-10-22T08:36:35.063Z,13.53
2022-10-22T08:41:35.084Z,13.63
2022-10-22T08:46:35.050Z,13.67
2022-10-22T08:51:35.057Z,13.73
2022-10-22T08:56:35.043Z,13.84
2022-10-22T09:01:35.035Z,13.84
2022-10-22T09:06:35.022Z,13.87
2022-10-22T09:11:35.030Z,13.96
2022-10-22T09:16:35.118Z,14.04
2022-10-22T09:21:35.000Z,14.13
2022-10-22T09:26:35.002Z,14.28
2022-10-22T09:31:34.994Z,14.44
2022-10-22T09:36:34.993Z,14.54
2022-10-22T09:41:34.979Z,14.59
2022-10-22T09:46:34.970Z,14.6
2022-10-22T09:51:34.977Z,14.56
2022-10-22T09:56:34.962Z,14.66
2022-10-22T10:01:34.957Z,14.66
2022-10-22T10:06:34.953Z,14.67
2022-10-22T10:11:34.947Z,14.79
2022-10-22T10:16:34.929Z,14.85
2022-10-22T10:21:34.952Z,14.92
2022-10-22T10:26:34.927Z,15.02
2022-10-22T10:31:34.947Z,15.02
2022-10-22T10:36:34.919Z,15.38
2022-10-22T10:41:34.912Z,15.59
2022-10-22T10:46:36.332Z,15.73
2022-10-22T10:51:34.900Z,15.81
2022-10-22T10:56:35.686Z,16.06
2022-10-22T11:01:34.941Z,16.32
2022-10-22T11:06:34.870Z,16.5
2022-10-22T11:11:34.880Z,16.83
2022-10-22T11:16:34.864Z,17.07
2022-10-22T11:21:34.877Z,17.2
2022-10-22T11:26:34.850Z,17.26
2022-10-22T11:31:34.843Z,17.15
2022-10-22T11:36:34.867Z,17.2
2022-10-22T11:41:34.837Z,17.56
2022-10-22T11:46:34.839Z,17.61
2022-10-22T11:51:34.825Z,17.57
2022-10-22T11:56:34.835Z,17.74
2022-10-22T12:06:34.844Z,18.07
2022-10-22T12:11:34.840Z,17.96
2022-10-22T12:16:54.475Z,17.8
2022-10-22T12:21:34.788Z,17.77
2022-10-22T12:26:34.802Z,17.88
2022-10-22T12:31:34.790Z,17.73
2022-10-22T12:36:34.780Z,17.7
2022-10-22T12:41:34.773Z,17.39
2022-10-22T12:46:34.761Z,17.75
2022-10-22T12:51:34.771Z,17.68
2022-10-22T12:56:34.744Z,17.64
2022-10-22T13:01:34.738Z,18.02
2022-10-22T13:06:34.735Z,17.94
2022-10-22T13:11:34.738Z,17.64
2022-10-22T13:21:34.720Z,17.09
2022-10-22T13:26:34.712Z,16.88
2022-10-22T13:31:34.721Z,16.81
2022-10-22T13:36:34.707Z,16.79
2022-10-22T13:41:34.775Z,17.09
2022-10-22T13:46:34.704Z,17
2022-10-22T13:51:34.891Z,17.15
2022-10-22T13:56:34.689Z,17.26
2022-10-22T14:01:34.670Z,17.47
2022-10-22T14:11:34.648Z,16.64
2022-10-22T14:16:34.640Z,16.21
2022-10-22T14:21:34.630Z,16.07
2022-10-22T14:26:34.625Z,16.28
2022-10-22T14:31:34.695Z,16.33
2022-10-22T14:36:34.614Z,16.33
2022-10-22T14:41:34.615Z,16.14
2022-10-22T14:46:34.628Z,15.94
2022-10-22T14:51:34.612Z,15.72
2022-10-22T14:56:34.648Z,15.39
2022-10-22T15:01:34.601Z,15.38
2022-10-22T15:06:34.589Z,15.18
2022-10-22T15:11:34.579Z,14.96
2022-10-22T15:16:34.573Z,14.77
2022-10-22T15:21:34.604Z,14.59
2022-10-22T15:31:34.559Z,14.2
2022-10-22T15:36:34.540Z,14
2022-10-22T15:46:34.742Z,13.61
2022-10-22T16:21:34.495Z,12.47
2022-10-22T16:26:34.493Z,12.29
2022-10-22T16:31:34.500Z,12.14
2022-10-22T16:36:34.481Z,11.99
2022-10-22T16:41:34.490Z,11.84
2022-10-22T16:46:34.479Z,11.7
2022-10-22T16:51:34.479Z,11.65
2022-10-22T16:56:34.480Z,11.51
2022-10-22T17:01:38.053Z,11.39
2022-10-22T17:06:34.458Z,11.37
2022-10-22T17:11:34.490Z,11.26
2022-10-22T17:16:34.471Z,11.11
2022-10-22T17:21:34.448Z,11
2022-10-22T17:31:34.440Z,10.88
2022-10-22T17:36:35.084Z,10.75
2022-10-22T17:41:34.419Z,10.66
2022-10-22T17:46:34.410Z,10.57
2022-10-22T17:51:34.412Z,10.46
2022-10-22T17:56:34.410Z,10.37
2022-10-22T18:01:34.475Z,10.43
2022-10-22T18:06:34.374Z,10.35
2022-10-22T18:11:34.433Z,10.28
2022-10-22T18:16:34.388Z,10.19
2022-10-22T18:21:34.386Z,10.14
2022-10-22T18:26:34.363Z,10.11
2022-10-22T18:31:34.365Z,10.04
2022-10-22T18:36:34.370Z,9.98
2022-10-22T18:41:34.352Z,9.87
2022-10-22T18:46:34.468Z,9.78
2022-10-22T18:51:34.334Z,9.77
2022-10-22T18:56:34.338Z,9.77
2022-10-22T19:01:34.375Z,9.77
2022-10-22T19:06:36.792Z,9.64
2022-10-22T19:11:34.323Z,9.53
2022-10-22T19:16:34.340Z,9.49
2022-10-22T19:21:34.327Z,9.45
2022-10-22T19:26:34.321Z,9.45
2022-10-22T19:31:34.310Z,9.4
2022-10-22T19:36:34.308Z,9.41
2022-10-22T19:41:34.284Z,9.4
2022-10-22T19:46:34.305Z,9.3
2022-10-22T19:51:34.290Z,9.18
2022-10-22T19:56:34.290Z,9.13
2022-10-22T20:01:34.308Z,9.11
2022-10-22T20:06:34.274Z,9.16
2022-10-22T20:11:34.264Z,9.14
2022-10-22T20:16:39.276Z,9.16
2022-10-22T20:26:34.252Z,9.11
2022-10-22T20:31:34.250Z,9.11
2022-10-22T20:36:34.244Z,9.05
2022-10-22T20:41:34.230Z,9.02
2022-10-22T20:46:34.223Z,8.99
2022-10-22T20:56:34.228Z,9.02
2022-10-22T21:01:34.223Z,9.01
2022-10-22T21:06:34.232Z,9.02
2022-10-22T21:41:34.180Z,9.21
2022-10-22T21:46:34.178Z,9.15
2022-10-22T21:51:34.167Z,9.12
2022-10-22T21:56:34.167Z,9.16
2022-10-22T22:11:59.194Z,9.22
2022-10-22T22:16:34.162Z,9.24
2022-10-22T22:21:34.163Z,9.36
2022-10-22T22:26:34.139Z,9.33
2022-10-22T22:31:34.159Z,9.33
2022-10-22T22:36:34.137Z,9.33
2022-10-22T22:41:34.134Z,9.28
2022-10-22T22:46:34.130Z,9.21
2022-10-22T22:51:34.119Z,9.15
2022-10-22T22:56:34.132Z,9.08
2022-10-22T23:01:34.233Z,9.07
2022-10-22T23:06:34.103Z,9.05
2022-10-22T23:11:34.095Z,9.02
2022-10-22T23:16:34.100Z,9
2022-10-22T23:21:34.089Z,9.01
2022-10-22T23:26:34.082Z,9.03
2022-10-22T23:31:34.084Z,9.01
2022-10-22T23:36:34.189Z,8.95
2022-10-22T23:41:34.069Z,8.87
2022-10-22T23:46:34.064Z,8.8
2022-10-22T23:51:34.098Z,8.74
2022-10-22T23:56:34.077Z,8.71
